Repubbli Del Brasile — IBZB — position and weather

sailwx.info

Track history (hours):
 
Tides and Currents Weather Stations Pressure Air Temp Water Temp Dewpoint Dewpoint Depression Visibility Wind Speed Wind Dir Waves Ship Positions

Repubbli Del Brasile

Last reported at 2016-Aug-27 09:12 UTC. Time now 2016-Aug-30 05:02 UTC.
Position N 39°24' W 000°15'.

Length 209 m; draft 7.6 m.

Type: Cargo ship. MMSI: 247310000.

Date/timePositionNaut miles runAvg speedWind from/ knotsBaromVisibWave heightAir tempDewpointWater temp
2016-Aug-27 09:12N 39°24' W 000°15'0 0.0
2016-Aug-27 08:30N 39°24' W 000°15'0 0.0
2016-Aug-27 07:32N 39°24' W 000°15'0 0.0
2016-Aug-27 06:32N 39°24' W 000°15'0 0.1
2016-Aug-27 03:34N 39°23' W 000°15'10311.5
2016-Aug-26 18:33N 37°40' W 000°25'1413.9
2016-Aug-26 17:33N 37°29' W 000°36'1414.2
2016-Aug-26 16:33N 37°20' W 000°49'22513.7
2016-Aug-26 00:05N 36°01' W 005°12'814.5
2016-Aug-25 23:34N 35°58' W 005°21'1716.8
2016-Aug-25 22:32N 35°53' W 005°41'29315.2
2016-Aug-25 03:17N 32°28' W 009°54'6913.5
2016-Aug-24 22:10N 31°35' W 010°46'2512.3
2016-Aug-24 20:08N 31°17' W 011°07'9213.8
2016-Aug-24 13:29N 30°08' W 012°16'1514.2
2016-Aug-24 12:28N 29°56' W 012°27'1314.4
2016-Aug-24 11:34N 29°46' W 012°36'1414.1
2016-Aug-24 10:33N 29°36' W 012°47'1413.9
2016-Aug-24 09:33N 29°25' W 012°57'1413.8
2016-Aug-24 08:33N 29°14' W 013°07'1414.1
2016-Aug-24 07:33N 29°03' W 013°16'1414.4
2016-Aug-24 06:34N 28°50' W 013°24'2914.4
2016-Aug-24 04:34N 28°24' W 013°39'1514.6
2016-Aug-24 03:33N 28°11' W 013°46'1414.2
2016-Aug-24 02:34N 27°59' W 013°55'1514.5
2016-Aug-24 01:34N 27°47' W 014°03'1414.3
2016-Aug-24 00:34N 27°35' W 014°12'1514.9
2016-Aug-23 23:34N 27°22' W 014°22'1514.7
2016-Aug-23 22:34N 27°10' W 014°31'1414.4
2016-Aug-23 21:34N 26°58' W 014°39'1414.1
2016-Aug-23 20:33N 26°46' W 014°48'1514.5
2016-Aug-23 19:32N 26°34' W 014°57'1414.4
2016-Aug-23 18:33N 26°22' W 015°06'71714.3
2016-Aug-21 16:26N 14°38' W 017°31'7 7.5
2016-Aug-21 15:33N 14°41' W 017°25'1 0.6
2016-Aug-21 14:33N 14°40' W 017°25'0 0.0
2016-Aug-21 13:33N 14°40' W 017°25'0 0.0
2016-Aug-21 12:33N 14°40' W 017°25'0 0.0
2016-Aug-21 11:32N 14°40' W 017°25'0 0.0
2016-Aug-21 10:32N 14°40' W 017°25'0 0.0
2016-Aug-21 09:31N 14°40' W 017°25'0 0.0
2016-Aug-21 08:31N 14°40' W 017°25'0 0.0
2016-Aug-21 07:33N 14°40' W 017°25'0 0.0
2016-Aug-21 06:33N 14°40' W 017°25'0 0.0
2016-Aug-21 05:33N 14°40' W 017°25'0 0.0
2016-Aug-21 04:32N 14°40' W 017°25'0 0.0
2016-Aug-21 03:32N 14°40' W 017°25'0 0.0
2016-Aug-21 02:31N 14°40' W 017°25'0 0.0
2016-Aug-21 01:31N 14°40' W 017°25'0 0.0
2016-Aug-21 00:33N 14°40' W 017°25'0 0.0
2016-Aug-20 23:33N 14°40' W 017°25'0 0.0
2016-Aug-20 22:33N 14°40' W 017°25'0 0.0
2016-Aug-20 21:32N 14°40' W 017°25'0 0.0
2016-Aug-20 20:32N 14°40' W 017°25'0 0.0
2016-Aug-20 19:31N 14°40' W 017°25'0 0.0
2016-Aug-20 18:31N 14°40' W 017°25'0 0.0
2016-Aug-20 17:33N 14°40' W 017°25'0 0.0
2016-Aug-20 16:33N 14°40' W 017°25'0 0.0
2016-Aug-20 15:32N 14°40' W 017°25'0 0.0
2016-Aug-20 14:32N 14°40' W 017°25'0 0.0
2016-Aug-20 13:32N 14°40' W 017°25'0 0.0
2016-Aug-20 12:31N 14°40' W 017°25'0 0.0
2016-Aug-20 11:31N 14°40' W 017°25'2 2.5
2016-Aug-20 10:33N 14°40' W 017°23'  
Track history (hours):
 
Tides and Currents Weather Stations Pressure Air Temp Water Temp Dewpoint Dewpoint Depression Visibility Wind Speed Wind Dir Waves Ship Positions

Repubbli Del Brasile

Last reported at 2016-Aug-27 09:12 UTC. Time now 2016-Aug-30 05:02 UTC.
Position N 39°24' W 000°15'.

Length 209 m; draft 7.6 m.

Type: Cargo ship. MMSI: 247310000.

Date/timePositionNaut miles runAvg speedWind from/ knotsBaromVisibWave heightAir tempDewpointWater temp
2016-Aug-27 09:12N 39°24' W 000°15'0 0.0
2016-Aug-27 08:30N 39°24' W 000°15'0 0.0
2016-Aug-27 07:32N 39°24' W 000°15'0 0.0
2016-Aug-27 06:32N 39°24' W 000°15'0 0.1
2016-Aug-27 03:34N 39°23' W 000°15'10311.5
2016-Aug-26 18:33N 37°40' W 000°25'1413.9
2016-Aug-26 17:33N 37°29' W 000°36'1414.2
2016-Aug-26 16:33N 37°20' W 000°49'22513.7
2016-Aug-26 00:05N 36°01' W 005°12'814.5
2016-Aug-25 23:34N 35°58' W 005°21'1716.8
2016-Aug-25 22:32N 35°53' W 005°41'29315.2
2016-Aug-25 03:17N 32°28' W 009°54'6913.5
2016-Aug-24 22:10N 31°35' W 010°46'2512.3
2016-Aug-24 20:08N 31°17' W 011°07'9213.8
2016-Aug-24 13:29N 30°08' W 012°16'1514.2
2016-Aug-24 12:28N 29°56' W 012°27'1314.4
2016-Aug-24 11:34N 29°46' W 012°36'1414.1
2016-Aug-24 10:33N 29°36' W 012°47'1413.9
2016-Aug-24 09:33N 29°25' W 012°57'1413.8
2016-Aug-24 08:33N 29°14' W 013°07'1414.1
2016-Aug-24 07:33N 29°03' W 013°16'1414.4
2016-Aug-24 06:34N 28°50' W 013°24'2914.4
2016-Aug-24 04:34N 28°24' W 013°39'1514.6
2016-Aug-24 03:33N 28°11' W 013°46'1414.2
2016-Aug-24 02:34N 27°59' W 013°55'1514.5
2016-Aug-24 01:34N 27°47' W 014°03'1414.3
2016-Aug-24 00:34N 27°35' W 014°12'1514.9
2016-Aug-23 23:34N 27°22' W 014°22'1514.7
2016-Aug-23 22:34N 27°10' W 014°31'1414.4
2016-Aug-23 21:34N 26°58' W 014°39'1414.1
2016-Aug-23 20:33N 26°46' W 014°48'1514.5
2016-Aug-23 19:32N 26°34' W 014°57'1414.4
2016-Aug-23 18:33N 26°22' W 015°06'71714.3
2016-Aug-21 16:26N 14°38' W 017°31'7 7.5
2016-Aug-21 15:33N 14°41' W 017°25'1 0.6
2016-Aug-21 14:33N 14°40' W 017°25'0 0.0
2016-Aug-21 13:33N 14°40' W 017°25'0 0.0
2016-Aug-21 12:33N 14°40' W 017°25'0 0.0
2016-Aug-21 11:32N 14°40' W 017°25'0 0.0
2016-Aug-21 10:32N 14°40' W 017°25'0 0.0
2016-Aug-21 09:31N 14°40' W 017°25'0 0.0
2016-Aug-21 08:31N 14°40' W 017°25'0 0.0
2016-Aug-21 07:33N 14°40' W 017°25'0 0.0
2016-Aug-21 06:33N 14°40' W 017°25'0 0.0
2016-Aug-21 05:33N 14°40' W 017°25'0 0.0
2016-Aug-21 04:32N 14°40' W 017°25'0 0.0
2016-Aug-21 03:32N 14°40' W 017°25'0 0.0
2016-Aug-21 02:31N 14°40' W 017°25'0 0.0
2016-Aug-21 01:31N 14°40' W 017°25'0 0.0
2016-Aug-21 00:33N 14°40' W 017°25'0 0.0
2016-Aug-20 23:33N 14°40' W 017°25'0 0.0
2016-Aug-20 22:33N 14°40' W 017°25'0 0.0
2016-Aug-20 21:32N 14°40' W 017°25'0 0.0
2016-Aug-20 20:32N 14°40' W 017°25'0 0.0
2016-Aug-20 19:31N 14°40' W 017°25'0 0.0
2016-Aug-20 18:31N 14°40' W 017°25'0 0.0
2016-Aug-20 17:33N 14°40' W 017°25'0 0.0
2016-Aug-20 16:33N 14°40' W 017°25'0 0.0
2016-Aug-20 15:32N 14°40' W 017°25'0 0.0
2016-Aug-20 14:32N 14°40' W 017°25'0 0.0
2016-Aug-20 13:32N 14°40' W 017°25'0 0.0
2016-Aug-20 12:31N 14°40' W 017°25'0 0.0
2016-Aug-20 11:31N 14°40' W 017°25'2 2.5
2016-Aug-20 10:33N 14°40' W 017°23'  

Dump ship's entire track history